createdAt,value
2023-04-17T00:02:46.498Z,87.94
2023-04-17T00:06:44.237Z,88.09
2023-04-17T00:10:42.225Z,88.09
2023-04-17T00:14:40.164Z,88.09
2023-04-17T00:18:38.282Z,88.08
2023-04-17T00:22:36.200Z,88.07
2023-04-17T00:26:34.239Z,88.07
2023-04-17T00:30:32.177Z,88.05
2023-04-17T00:34:30.244Z,88.13
2023-04-17T00:38:28.272Z,88.22
2023-04-17T00:42:26.255Z,88.29
2023-04-17T00:46:24.256Z,88.40
2023-04-17T00:50:22.210Z,88.57
2023-04-17T00:54:20.332Z,88.77
2023-04-17T00:58:18.283Z,89.03
2023-04-17T01:02:16.167Z,89.49
2023-04-17T01:06:14.284Z,89.71
2023-04-17T01:10:12.121Z,89.98
2023-04-17T01:14:10.161Z,90.17
2023-04-17T01:18:08.231Z,90.16
2023-04-17T01:22:06.231Z,90.22
2023-04-17T01:26:04.127Z,90.39
2023-04-17T01:30:02.150Z,90.60
2023-04-17T01:34:07.140Z,90.76
2023-04-17T01:38:05.141Z,90.82
2023-04-17T01:42:03.091Z,90.89
2023-04-17T01:46:01.227Z,90.99
2023-04-17T01:49:59.100Z,91.19
2023-04-17T01:53:57.084Z,91.21
2023-04-17T01:57:55.065Z,91.23
2023-04-17T02:01:53.306Z,91.25
2023-04-17T02:05:51.016Z,91.25
2023-04-17T02:09:49.092Z,91.27
2023-04-17T02:13:47.138Z,91.34
2023-04-17T02:17:45.103Z,91.32
2023-04-17T02:21:43.089Z,91.32
2023-04-17T02:25:41.051Z,91.35
2023-04-17T02:29:39.009Z,91.38
2023-04-17T02:33:38.049Z,91.36
2023-04-17T02:37:36.039Z,91.38
2023-04-17T02:41:34.117Z,91.39
2023-04-17T02:45:31.958Z,91.45
2023-04-17T02:49:30.059Z,91.59
2023-04-17T02:53:28.061Z,91.64
2023-04-17T02:57:26.032Z,91.60
2023-04-17T03:01:24.053Z,91.51
2023-04-17T03:05:21.991Z,91.34
2023-04-17T03:09:20.940Z,91.23
2023-04-17T03:13:19.002Z,91.17
2023-04-17T03:17:17.053Z,91.14
2023-04-17T03:21:14.982Z,91.11
2023-04-17T03:25:13.010Z,91.05
2023-04-17T03:29:15.960Z,91.00
2023-04-17T03:33:13.987Z,90.98
2023-04-17T03:37:11.952Z,91.02
2023-04-17T03:41:09.928Z,91.03
2023-04-17T03:45:07.950Z,91.07
2023-04-17T03:49:05.904Z,91.06
2023-04-17T03:53:03.987Z,91.05
2023-04-17T03:57:02.992Z,91.02
2023-04-17T04:01:02.012Z,90.97
2023-04-17T04:05:01.040Z,90.91
2023-04-17T04:08:58.899Z,90.91
2023-04-17T04:12:56.952Z,90.93
2023-04-17T04:16:55.076Z,90.90
2023-04-17T04:20:52.931Z,90.81
2023-04-17T04:24:54.907Z,90.75
2023-04-17T04:29:06.876Z,90.67
2023-04-17T04:33:26.983Z,90.44
2023-04-17T04:37:28.956Z,90.17
2023-04-17T04:41:33.907Z,89.95
2023-04-17T04:45:31.817Z,89.81
2023-04-17T04:49:29.849Z,89.72
2023-04-17T04:53:27.841Z,89.47
2023-04-17T04:57:25.852Z,89.21
2023-04-17T05:01:24.846Z,89.18
2023-04-17T05:05:22.833Z,88.98
2023-04-17T05:09:20.782Z,88.84
2023-04-17T05:13:19.848Z,88.17
2023-04-17T05:17:18.823Z,88.03
2023-04-17T05:21:16.863Z,87.64
2023-04-17T05:25:14.848Z,87.12
2023-04-17T05:29:13.090Z,87.05
2023-04-17T05:33:10.812Z,85.98
2023-04-17T05:37:13.772Z,86.19
2023-04-17T05:41:13.738Z,84.64
2023-04-17T05:45:11.771Z,84.24
2023-04-17T05:49:09.918Z,83.66
2023-04-17T05:53:07.869Z,83.17
2023-04-17T05:57:23.742Z,83.07
2023-04-17T06:01:06.088Z,82.26
2023-04-17T06:04:31.343Z,82.82
2023-04-17T06:07:55.563Z,82.91
2023-04-17T06:11:19.344Z,82.91
2023-04-17T06:14:44.389Z,83.08
2023-04-17T06:18:08.588Z,83.10
2023-04-17T06:21:33.664Z,83.20
2023-04-17T06:24:57.781Z,83.31
2023-04-17T06:28:21.678Z,82.83
2023-04-17T06:31:47.742Z,81.85
2023-04-17T06:35:13.258Z,81.60
2023-04-17T06:38:42.058Z,80.94
2023-04-17T06:42:09.167Z,80.70
2023-04-17T06:45:36.114Z,80.22
2023-04-17T06:49:03.246Z,79.33
2023-04-17T06:52:27.612Z,79.13
2023-04-17T06:55:53.944Z,77.88
2023-04-17T06:59:19.875Z,77.21
2023-04-17T07:02:44.139Z,76.85
2023-04-17T07:06:09.411Z,76.35
2023-04-17T07:09:33.557Z,76.15
2023-04-17T07:12:57.467Z,75.45
2023-04-17T07:16:23.026Z,75.61
2023-04-17T07:19:47.139Z,75.85
2023-04-17T07:23:11.236Z,75.76
2023-04-17T07:26:35.196Z,74.74
2023-04-17T07:29:59.042Z,74.17
2023-04-17T07:33:22.965Z,74.07
2023-04-17T07:36:47.613Z,73.33
2023-04-17T07:40:11.946Z,72.41
2023-04-17T07:43:35.826Z,72.32
2023-04-17T07:46:59.575Z,71.86
2023-04-17T07:50:23.919Z,70.26
2023-04-17T07:53:47.886Z,69.88
2023-04-17T07:57:11.973Z,70.12
2023-04-17T08:00:35.900Z,70.52
2023-04-17T08:04:00.114Z,70.72
2023-04-17T08:07:24.431Z,70.82
2023-04-17T08:10:48.200Z,71.15
2023-04-17T08:14:12.697Z,70.98
2023-04-17T08:17:36.839Z,71.30
2023-04-17T08:21:01.714Z,71.82
2023-04-17T08:24:25.972Z,72.09
2023-04-17T08:27:49.862Z,72.46
2023-04-17T08:31:13.994Z,72.63
2023-04-17T08:34:38.935Z,72.82
2023-04-17T08:38:03.034Z,73.22
2023-04-17T08:41:34.331Z,74.00
2023-04-17T08:45:02.157Z,74.28
2023-04-17T08:48:26.129Z,74.36
2023-04-17T08:51:50.109Z,73.45
2023-04-17T08:55:19.991Z,73.22
2023-04-17T08:58:44.010Z,72.86
2023-04-17T09:02:09.381Z,72.39
2023-04-17T09:05:34.456Z,72.19
2023-04-17T09:09:01.729Z,72.44
2023-04-17T09:12:27.328Z,72.46
2023-04-17T09:16:05.164Z,72.40
2023-04-17T09:19:29.102Z,72.80
2023-04-17T09:23:04.376Z,72.97
2023-04-17T09:26:32.118Z,73.07
2023-04-17T09:30:00.199Z,72.71
2023-04-17T09:33:24.153Z,72.07
2023-04-17T09:36:48.077Z,71.23
2023-04-17T09:40:12.389Z,71.35
2023-04-17T09:43:43.377Z,71.16
2023-04-17T09:47:08.887Z,70.61
2023-04-17T09:50:33.515Z,70.60
2023-04-17T09:54:00.173Z,70.70
2023-04-17T09:57:24.095Z,70.98
2023-04-17T10:00:48.718Z,71.13
2023-04-17T10:04:13.261Z,71.36
2023-04-17T10:07:39.328Z,71.75
2023-04-17T10:11:08.453Z,72.21
2023-04-17T10:14:36.469Z,72.76
2023-04-17T10:18:28.026Z,73.05
2023-04-17T10:22:18.073Z,73.27
2023-04-17T10:25:41.928Z,73.75
2023-04-17T10:29:06.137Z,74.15
2023-04-17T10:32:31.630Z,74.17
2023-04-17T10:35:56.451Z,74.96
2023-04-17T10:39:20.486Z,75.20
2023-04-17T10:43:07.883Z,75.53
2023-04-17T10:46:31.758Z,75.90
2023-04-17T10:49:58.441Z,76.49
2023-04-17T10:53:42.435Z,77.12
2023-04-17T10:57:11.128Z,77.11
2023-04-17T11:00:38.231Z,76.90
2023-04-17T11:04:02.400Z,76.79
2023-04-17T11:07:27.570Z,77.09
2023-04-17T11:10:56.872Z,77.39
2023-04-17T11:14:23.127Z,77.67
2023-04-17T11:17:48.689Z,78.27
2023-04-17T11:21:16.670Z,78.28
2023-04-17T11:24:40.587Z,78.82
2023-04-17T11:28:07.478Z,79.56
2023-04-17T11:31:31.747Z,80.66
2023-04-17T11:34:56.714Z,81.26
2023-04-17T11:38:23.302Z,81.28
2023-04-17T11:41:47.603Z,81.34
2023-04-17T11:45:12.288Z,82.08
2023-04-17T11:48:36.153Z,82.51
2023-04-17T11:52:05.614Z,82.96
2023-04-17T11:55:31.657Z,83.31
2023-04-17T11:58:57.943Z,83.13
2023-04-17T12:02:34.149Z,82.83
2023-04-17T12:06:02.730Z,83.43
2023-04-17T12:09:32.083Z,83.24
2023-04-17T12:12:56.692Z,83.00
2023-04-17T12:16:20.809Z,83.00
2023-04-17T12:19:45.370Z,82.86
2023-04-17T12:23:09.448Z,82.33
2023-04-17T12:26:33.303Z,82.39
2023-04-17T12:29:57.116Z,82.46
2023-04-17T12:33:20.996Z,82.70
2023-04-17T12:36:44.871Z,82.34
2023-04-17T12:40:11.969Z,83.23
2023-04-17T12:43:35.867Z,83.56
2023-04-17T12:46:59.734Z,83.51
2023-04-17T12:50:23.538Z,83.72
2023-04-17T12:53:47.904Z,83.45
2023-04-17T12:57:11.722Z,83.73
2023-04-17T13:00:36.379Z,84.34
2023-04-17T13:04:00.621Z,84.71
2023-04-17T13:07:24.895Z,84.61
2023-04-17T13:10:48.736Z,84.39
2023-04-17T13:14:13.284Z,84.23
2023-04-17T13:17:37.419Z,83.91
2023-04-17T13:21:01.308Z,83.71
2023-04-17T13:24:25.408Z,83.63
2023-04-17T13:27:49.502Z,83.75
2023-04-17T13:31:34.255Z,83.72
2023-04-17T13:35:32.224Z,83.96
2023-04-17T13:39:30.205Z,84.20
2023-04-17T13:43:28.204Z,83.91
2023-04-17T13:47:27.290Z,84.67
2023-04-17T13:51:25.288Z,85.41
2023-04-17T13:55:24.197Z,86.57
2023-04-17T13:59:22.260Z,87.17
2023-04-17T14:03:20.392Z,87.51
2023-04-17T14:07:25.197Z,87.87
2023-04-17T14:11:24.203Z,87.92
2023-04-17T14:15:22.229Z,87.68
2023-04-17T14:19:20.354Z,87.76
2023-04-17T14:23:19.178Z,87.46
2023-04-17T14:27:17.157Z,87.26
2023-04-17T14:31:15.193Z,87.21
2023-04-17T14:35:13.209Z,87.13
2023-04-17T14:39:11.598Z,86.62
2023-04-17T14:43:09.210Z,86.30
2023-04-17T14:47:07.222Z,85.88
2023-04-17T14:51:06.167Z,85.17
2023-04-17T14:55:04.220Z,84.76
2023-04-17T14:59:02.236Z,84.54
2023-04-17T15:03:00.335Z,84.19
2023-04-17T15:06:58.154Z,83.84
2023-04-17T15:10:56.234Z,84.56
2023-04-17T15:14:54.108Z,85.15
2023-04-17T15:18:52.194Z,85.84
2023-04-17T15:22:50.134Z,85.73
2023-04-17T15:26:48.072Z,86.10
2023-04-17T15:30:46.128Z,86.28
2023-04-17T15:34:44.111Z,86.04
2023-04-17T15:38:42.115Z,85.70
2023-04-17T15:42:40.081Z,85.50
2023-04-17T15:46:38.111Z,85.64
2023-04-17T15:50:36.041Z,85.75
2023-04-17T15:54:34.103Z,85.99
2023-04-17T15:58:32.199Z,86.10
2023-04-17T16:02:30.124Z,85.95
2023-04-17T16:06:28.042Z,85.78
2023-04-17T16:10:29.025Z,85.65
2023-04-17T16:14:27.085Z,85.95
2023-04-17T16:18:24.983Z,86.13
2023-04-17T16:22:23.022Z,86.10
2023-04-17T16:26:22.033Z,86.02
2023-04-17T16:30:21.019Z,85.85
2023-04-17T16:34:21.009Z,85.85
2023-04-17T16:38:18.967Z,85.74
2023-04-17T16:42:16.949Z,85.61
2023-04-17T16:46:23.913Z,85.63
2023-04-17T16:50:25.976Z,85.74
2023-04-17T16:54:25.081Z,85.74
2023-04-17T16:58:22.963Z,85.92
2023-04-17T17:02:23.505Z,85.70
2023-04-17T17:06:21.052Z,85.66
2023-04-17T17:10:18.952Z,85.63
2023-04-17T17:14:16.957Z,85.55
2023-04-17T17:18:14.933Z,85.59
2023-04-17T17:22:12.985Z,85.45
2023-04-17T17:26:10.995Z,85.48
2023-04-17T17:30:09.906Z,85.49
2023-04-17T17:38:13.908Z,85.55
2023-04-17T17:42:15.374Z,85.56
2023-04-17T17:46:12.969Z,85.78
2023-04-17T17:50:10.918Z,85.78
2023-04-17T17:54:08.901Z,85.68
2023-04-17T17:58:06.986Z,85.70
2023-04-17T18:02:05.272Z,85.78
2023-04-17T18:06:02.966Z,85.83
2023-04-17T18:10:00.882Z,85.82
2023-04-17T18:13:58.867Z,85.86
2023-04-17T18:17:56.945Z,85.91
2023-04-17T18:21:54.960Z,85.83
2023-04-17T18:25:52.935Z,85.89
2023-04-17T18:29:50.835Z,85.81
2023-04-17T18:33:48.829Z,85.76
2023-04-17T18:37:49.993Z,85.81
2023-04-17T18:41:47.842Z,85.84
2023-04-17T18:45:45.968Z,85.88
2023-04-17T18:49:43.835Z,85.89
2023-04-17T18:53:42.894Z,85.89
2023-04-17T18:57:40.869Z,85.90
2023-04-17T19:01:38.819Z,86.12
2023-04-17T19:05:37.009Z,86.33
2023-04-17T19:09:34.907Z,86.42
2023-04-17T19:13:32.880Z,86.75
2023-04-17T19:17:30.900Z,87.18
2023-04-17T19:21:28.816Z,87.31
2023-04-17T19:25:27.840Z,87.58
2023-04-17T19:29:25.841Z,87.84
2023-04-17T19:33:23.772Z,87.91
2023-04-17T19:37:21.761Z,88.09
2023-04-17T19:41:28.864Z,88.33
2023-04-17T19:45:27.818Z,88.41
2023-04-17T19:49:25.847Z,88.61
2023-04-17T19:53:23.727Z,88.79
2023-04-17T19:57:22.745Z,88.95
2023-04-17T20:01:20.823Z,89.12
2023-04-17T20:05:18.797Z,89.33
2023-04-17T20:09:18.109Z,89.52
2023-04-17T20:13:15.753Z,89.78
2023-04-17T20:17:13.744Z,89.88
2023-04-17T20:21:12.860Z,89.90
2023-04-17T20:25:10.716Z,89.96
2023-04-17T20:29:08.722Z,90.37
2023-04-17T20:33:06.860Z,90.52
2023-04-17T20:37:04.775Z,90.73
2023-04-17T20:41:02.747Z,90.99
2023-04-17T20:45:01.866Z,91.21
2023-04-17T20:48:59.738Z,91.25
2023-04-17T20:52:57.696Z,91.31
2023-04-17T20:56:55.690Z,91.24
2023-04-17T21:01:00.838Z,91.26
2023-04-17T21:04:59.753Z,91.24
2023-04-17T21:08:57.738Z,91.19
2023-04-17T21:12:55.736Z,91.13
2023-04-17T21:16:53.677Z,91.06
2023-04-17T21:20:54.612Z,91.04
2023-04-17T21:24:52.709Z,91.08
2023-04-17T21:28:53.656Z,91.13
2023-04-17T21:32:51.772Z,91.14
2023-04-17T21:36:49.626Z,91.11
2023-04-17T21:40:51.324Z,91.08
2023-04-17T21:44:49.582Z,90.99
2023-04-17T21:48:47.752Z,91.03
2023-04-17T21:52:45.574Z,91.03
2023-04-17T21:56:43.613Z,91.00
2023-04-17T22:00:41.700Z,91.03
2023-04-17T22:04:41.599Z,91.08
2023-04-17T22:08:39.557Z,91.13
2023-04-17T22:12:37.579Z,91.14
2023-04-17T22:16:35.548Z,91.10
2023-04-17T22:20:34.576Z,91.05
2023-04-17T22:24:33.694Z,90.95
2023-04-17T22:28:32.757Z,90.85
2023-04-17T22:32:30.557Z,90.80
2023-04-17T22:36:29.540Z,90.81
2023-04-17T22:40:27.615Z,90.76
2023-04-17T22:44:25.609Z,90.78
2023-04-17T22:48:24.639Z,90.76
2023-04-17T22:52:22.676Z,90.74
2023-04-17T22:56:22.502Z,90.72
2023-04-17T23:00:22.539Z,90.67
2023-04-17T23:04:20.610Z,90.71
2023-04-17T23:08:18.480Z,90.74
2023-04-17T23:12:16.457Z,90.78
2023-04-17T23:16:15.991Z,90.84
2023-04-17T23:20:15.592Z,90.86
2023-04-17T23:24:13.670Z,90.87
2023-04-17T23:28:11.446Z,90.92
2023-04-17T23:32:11.472Z,90.92
2023-04-17T23:36:09.479Z,90.84
2023-04-17T23:40:07.530Z,90.83
2023-04-17T23:44:05.432Z,90.82
2023-04-17T23:48:03.494Z,90.79
2023-04-17T23:52:01.607Z,90.77
2023-04-17T23:55:59.577Z,90.69
2023-04-17T23:59:58.451Z,90.66
